createdAt,value
2018-07-25T00:00:40.494Z,5.83
2018-07-25T00:03:10.743Z,7.80
2018-07-25T00:05:40.926Z,8.07
2018-07-25T00:08:11.216Z,5.80
2018-07-25T00:10:46.351Z,5.77
2018-07-25T00:13:16.809Z,9.20
2018-07-25T00:15:47.029Z,6.00
2018-07-25T00:18:17.123Z,6.17
2018-07-25T00:20:47.243Z,6.43
2018-07-25T00:23:17.446Z,6.13
2018-07-25T00:25:47.424Z,7.40
2018-07-25T00:28:17.646Z,5.87
2018-07-25T00:30:47.714Z,6.87
2018-07-25T00:33:18.106Z,6.87
2018-07-25T00:35:48.550Z,6.70
2018-07-25T00:41:04.007Z,6.00
2018-07-25T00:43:34.120Z,6.08
2018-07-25T00:46:04.341Z,6.10
2018-07-25T00:48:34.235Z,6.33
2018-07-25T00:51:04.276Z,6.03
2018-07-25T00:53:33.981Z,11.03
2018-07-25T00:56:03.875Z,8.60
2018-07-25T00:58:33.855Z,8.77
2018-07-25T01:01:03.520Z,8.80
2018-07-25T01:03:33.312Z,9.83
2018-07-25T01:06:03.160Z,9.20
2018-07-25T01:08:32.900Z,6.73
2018-07-25T01:11:02.872Z,14.00
2018-07-25T01:13:33.831Z,7.60
2018-07-25T01:16:04.500Z,6.67
2018-07-25T01:18:35.080Z,8.37
2018-07-25T01:21:05.842Z,9.50
2018-07-25T01:23:36.340Z,11.33
2018-07-25T01:26:07.392Z,9.05
2018-07-25T01:28:37.400Z,11.73
2018-07-25T01:31:08.526Z,7.97
2018-07-25T01:33:38.664Z,10.87
2018-07-25T01:36:09.383Z,9.88
2018-07-25T01:38:39.530Z,9.58
2018-07-25T01:41:10.437Z,12.88
2018-07-25T01:43:40.382Z,9.48
2018-07-25T01:46:11.202Z,9.83
2018-07-25T01:48:42.105Z,6.85
2018-07-25T01:51:12.732Z,6.90
2018-07-25T01:53:43.067Z,6.30
2018-07-25T01:56:13.701Z,6.50
2018-07-25T01:58:44.440Z,10.00
2018-07-25T02:01:15.027Z,9.70
2018-07-25T02:03:45.340Z,7.03
2018-07-25T02:06:16.159Z,10.75
2018-07-25T02:08:46.047Z,10.07
2018-07-25T02:11:15.701Z,8.47
2018-07-25T02:13:45.451Z,6.27
2018-07-25T02:16:15.285Z,7.77
2018-07-25T02:18:45.045Z,18.50
2018-07-25T02:21:15.065Z,16.97
2018-07-25T02:23:44.901Z,14.47
2018-07-25T02:26:14.835Z,10.20
2018-07-25T02:28:44.840Z,9.40
2018-07-25T02:31:14.734Z,10.63
2018-07-25T02:33:49.616Z,13.60
2018-07-25T02:36:19.520Z,11.80
2018-07-25T02:38:49.375Z,8.83
2018-07-25T02:41:18.792Z,10.83
2018-07-25T02:43:48.776Z,9.37
2018-07-25T02:46:18.717Z,7.40
2018-07-25T02:48:48.637Z,8.63
2018-07-25T02:51:18.595Z,10.00
2018-07-25T02:53:48.447Z,9.90
2018-07-25T02:56:18.590Z,11.87
2018-07-25T02:58:48.493Z,16.93
2018-07-25T03:01:18.360Z,26.63
2018-07-25T03:03:48.317Z,14.37
2018-07-25T03:06:18.220Z,13.63
2018-07-25T03:08:48.051Z,13.60
2018-07-25T03:11:17.858Z,15.43
2018-07-25T03:13:47.725Z,11.73
2018-07-25T03:16:17.381Z,10.77
2018-07-25T03:18:47.207Z,11.17
2018-07-25T03:21:17.007Z,10.45
2018-07-25T03:23:46.885Z,10.60
2018-07-25T03:26:16.390Z,10.40
2018-07-25T03:28:46.378Z,10.13
2018-07-25T03:31:16.195Z,10.15
2018-07-25T03:33:46.006Z,10.80
2018-07-25T03:36:15.736Z,11.53
2018-07-25T03:38:45.811Z,10.38
2018-07-25T03:41:15.923Z,9.75
2018-07-25T03:43:45.726Z,8.77
2018-07-25T03:46:15.365Z,7.73
2018-07-25T03:48:45.292Z,8.65
2018-07-25T03:51:15.389Z,8.75
2018-07-25T03:53:45.264Z,9.30
2018-07-25T03:56:15.034Z,8.90
2018-07-25T03:58:44.885Z,8.13
2018-07-25T04:01:14.618Z,9.00
2018-07-25T04:03:44.465Z,7.30
2018-07-25T04:06:14.468Z,8.35
2018-07-25T04:08:45.153Z,9.80
2018-07-25T04:11:15.888Z,7.60
2018-07-25T04:13:46.464Z,8.85
2018-07-25T04:16:16.744Z,8.80
2018-07-25T04:18:47.405Z,7.95
2018-07-25T04:21:18.144Z,8.20
2018-07-25T04:23:48.801Z,7.20
2018-07-25T04:26:19.105Z,8.20
2018-07-25T04:38:53.695Z,8.17
2018-07-25T04:41:23.385Z,9.23
2018-07-25T04:43:53.180Z,7.40
2018-07-25T04:46:23.789Z,7.58
2018-07-25T04:48:54.103Z,8.53
2018-07-25T04:51:24.560Z,7.75
2018-07-25T04:53:55.301Z,10.32
2018-07-25T04:56:24.960Z,10.03
2018-07-25T04:58:54.595Z,8.50
2018-07-25T05:01:24.277Z,7.60
2018-07-25T05:03:53.971Z,9.87
2018-07-25T05:06:23.673Z,10.07
2018-07-25T05:08:53.476Z,11.10
2018-07-25T05:11:23.195Z,8.80
2018-07-25T05:13:52.882Z,9.83
2018-07-25T05:16:22.525Z,8.03
2018-07-25T05:18:52.241Z,10.77
2018-07-25T05:21:21.936Z,16.67
2018-07-25T05:23:51.665Z,9.47
2018-07-25T05:26:21.375Z,9.38
2018-07-25T05:28:51.033Z,9.17
2018-07-25T05:31:20.676Z,12.40
2018-07-25T05:33:50.415Z,7.83
2018-07-25T05:36:20.290Z,10.17
2018-07-25T05:38:50.001Z,12.73
2018-07-25T05:41:19.631Z,11.40
2018-07-25T05:43:49.382Z,8.67
2018-07-25T05:46:19.529Z,9.20
2018-07-25T05:48:49.297Z,9.83
2018-07-25T05:51:18.973Z,9.97
2018-07-25T05:53:48.652Z,11.50
2018-07-25T05:56:18.361Z,11.27
2018-07-25T05:58:48.143Z,11.90
2018-07-25T06:01:17.887Z,11.07
2018-07-25T06:03:47.623Z,9.10
2018-07-25T06:06:17.967Z,13.18
2018-07-25T06:08:48.442Z,14.40
2018-07-25T06:11:19.149Z,10.38
2018-07-25T06:13:49.903Z,13.40
2018-07-25T06:16:20.369Z,13.00
2018-07-25T06:18:50.599Z,10.88
2018-07-25T06:21:21.401Z,12.87
2018-07-25T06:23:51.877Z,10.43
2018-07-25T06:26:22.682Z,10.55
2018-07-25T06:28:53.039Z,13.88
2018-07-25T06:31:23.711Z,14.30
2018-07-25T06:33:54.158Z,12.00
2018-07-25T06:36:24.714Z,12.95
2018-07-25T06:38:55.193Z,16.07
2018-07-25T06:41:24.872Z,24.70
2018-07-25T06:43:54.587Z,16.10
2018-07-25T06:46:24.312Z,17.70
2018-07-25T06:48:54.037Z,12.97
2018-07-25T06:51:23.748Z,17.20
2018-07-25T06:53:53.455Z,14.20
2018-07-25T06:56:23.186Z,16.03
2018-07-25T06:58:52.954Z,15.73
2018-07-25T07:01:22.661Z,20.17
2018-07-25T07:03:52.373Z,14.47
2018-07-25T07:06:22.192Z,12.90
2018-07-25T07:08:51.999Z,16.07
2018-07-25T07:11:21.636Z,15.93
2018-07-25T07:13:51.597Z,14.83
2018-07-25T07:16:21.308Z,14.00
2018-07-25T07:18:51.008Z,21.93
2018-07-25T07:21:20.748Z,12.57
2018-07-25T07:23:51.222Z,15.20
2018-07-25T07:26:20.824Z,16.03
2018-07-25T07:28:50.647Z,11.90
2018-07-25T07:31:20.559Z,11.78
2018-07-25T07:33:50.227Z,15.30
2018-07-25T07:36:19.907Z,13.00
2018-07-25T07:38:49.732Z,13.47
2018-07-25T07:41:19.499Z,13.67
2018-07-25T07:43:49.310Z,9.13
2018-07-25T07:46:19.008Z,11.57
2018-07-25T07:48:48.813Z,14.73
2018-07-25T07:51:18.587Z,13.45
2018-07-25T07:53:48.321Z,9.23
2018-07-25T07:56:18.091Z,10.07
2018-07-25T07:58:47.783Z,10.20
2018-07-25T08:01:17.454Z,15.38
2018-07-25T08:03:47.136Z,12.45
2018-07-25T08:06:16.851Z,14.07
2018-07-25T08:08:47.526Z,17.97
2018-07-25T08:11:19.612Z,12.53
2018-07-25T08:13:50.469Z,12.73
2018-07-25T08:16:20.409Z,13.83
2018-07-25T08:18:50.143Z,10.87
2018-07-25T08:21:19.892Z,14.13
2018-07-25T08:23:49.538Z,11.63
2018-07-25T08:26:19.337Z,11.33
2018-07-25T08:28:49.520Z,11.38
2018-07-25T08:31:20.066Z,12.27
2018-07-25T08:33:50.605Z,11.68
2018-07-25T08:36:20.999Z,12.18
2018-07-25T08:38:51.679Z,11.38
2018-07-25T08:41:22.048Z,10.45
2018-07-25T08:43:52.777Z,8.85
2018-07-25T08:46:23.163Z,11.70
2018-07-25T08:48:54.005Z,12.77
2018-07-25T08:51:24.440Z,12.70
2018-07-25T08:53:55.236Z,7.72
2018-07-25T08:56:25.877Z,10.97
2018-07-25T08:58:56.570Z,10.98
2018-07-25T09:01:26.987Z,10.83
2018-07-25T09:03:57.667Z,9.08
2018-07-25T09:06:28.174Z,8.73
2018-07-25T09:08:59.112Z,13.30
2018-07-25T09:11:33.643Z,7.28
2018-07-25T09:14:03.608Z,8.40
2018-07-25T09:16:33.435Z,12.70
2018-07-25T09:19:03.933Z,12.67
2018-07-25T09:21:33.707Z,8.77
2018-07-25T09:24:03.378Z,8.80
2018-07-25T09:26:33.157Z,9.47
2018-07-25T09:29:02.912Z,6.07
2018-07-25T09:31:32.552Z,8.40
2018-07-25T09:34:02.368Z,7.37
2018-07-25T09:36:31.991Z,12.70
2018-07-25T09:39:01.702Z,11.17
2018-07-25T09:41:31.383Z,6.17
2018-07-25T09:44:01.142Z,11.30
2018-07-25T09:46:30.933Z,9.57
2018-07-25T09:49:00.775Z,7.77
2018-07-25T09:51:30.523Z,6.90
2018-07-25T09:54:00.273Z,9.88
2018-07-25T09:56:30.055Z,10.73
2018-07-25T09:58:59.860Z,7.72
2018-07-25T10:01:29.644Z,8.87
2018-07-25T10:03:59.607Z,10.93
2018-07-25T10:06:29.335Z,11.47
2018-07-25T10:08:59.219Z,15.00
2018-07-25T10:11:29.009Z,9.87
2018-07-25T10:13:59.565Z,8.88
2018-07-25T10:16:29.317Z,10.73
2018-07-25T10:18:59.229Z,6.85
2018-07-25T10:21:28.978Z,8.13
2018-07-25T10:23:58.764Z,6.78
2018-07-25T10:26:28.533Z,9.17
2018-07-25T10:28:58.358Z,5.53
2018-07-25T10:31:28.038Z,11.57
2018-07-25T10:33:57.923Z,5.37
2018-07-25T10:36:27.679Z,7.40
2018-07-25T10:38:57.456Z,8.83
2018-07-25T10:41:27.189Z,7.80
2018-07-25T10:43:56.921Z,7.63
2018-07-25T10:46:26.808Z,7.23
2018-07-25T10:48:57.031Z,5.97
2018-07-25T10:51:27.518Z,6.42
2018-07-25T10:53:57.930Z,6.47
2018-07-25T10:56:28.564Z,5.50
2018-07-25T10:59:00.453Z,8.33
2018-07-25T11:01:30.234Z,4.93
2018-07-25T11:04:00.370Z,7.33
2018-07-25T11:06:30.948Z,4.55
2018-07-25T11:09:01.516Z,6.20
2018-07-25T11:11:32.409Z,8.50
2018-07-25T11:14:02.944Z,4.67
2018-07-25T11:16:33.707Z,9.50
2018-07-25T11:19:04.239Z,4.40
2018-07-25T11:21:35.248Z,8.70
2018-07-25T11:24:05.503Z,5.13
2018-07-25T11:26:35.253Z,5.43
2018-07-25T11:29:04.978Z,5.00
2018-07-25T11:31:34.678Z,4.10
2018-07-25T11:34:04.380Z,6.30
2018-07-25T11:36:34.128Z,7.53
2018-07-25T11:39:04.063Z,5.77
2018-07-25T11:41:33.808Z,5.10
2018-07-25T11:44:03.718Z,24.37
2018-07-25T11:46:33.468Z,6.67
2018-07-25T11:49:03.244Z,3.93
2018-07-25T11:51:32.869Z,4.60
2018-07-25T11:54:02.619Z,5.78
2018-07-25T11:56:32.431Z,5.33
2018-07-25T11:59:02.254Z,5.03
2018-07-25T12:01:32.040Z,9.50
2018-07-25T12:04:01.720Z,8.23
2018-07-25T12:06:31.418Z,7.70
2018-07-25T12:09:01.017Z,7.80
2018-07-25T12:11:30.769Z,5.03
2018-07-25T12:14:00.457Z,5.85
2018-07-25T12:16:30.119Z,13.62
2018-07-25T12:18:59.757Z,12.03
2018-07-25T12:21:29.420Z,5.37
2018-07-25T12:23:59.089Z,9.47
2018-07-25T12:26:28.781Z,5.00
2018-07-25T12:28:58.429Z,6.73
2018-07-25T12:31:28.240Z,6.10
2018-07-25T12:33:57.986Z,5.73
2018-07-25T12:36:27.652Z,11.04
2018-07-25T12:38:57.432Z,12.95
2018-07-25T12:41:27.079Z,7.30
2018-07-25T12:43:56.793Z,8.73
2018-07-25T12:46:26.443Z,5.28
2018-07-25T12:48:56.166Z,8.25
2018-07-25T12:51:26.319Z,4.65
2018-07-25T12:53:57.248Z,9.15
2018-07-25T12:56:27.564Z,4.85
2018-07-25T12:58:58.278Z,7.72
2018-07-25T13:01:28.749Z,4.10
2018-07-25T13:03:59.519Z,7.88
2018-07-25T13:06:29.860Z,5.55
2018-07-25T13:09:00.309Z,6.05
2018-07-25T13:11:31.580Z,5.22
2018-07-25T13:14:01.961Z,4.35
2018-07-25T13:16:32.298Z,5.07
2018-07-25T13:19:03.184Z,8.08
2018-07-25T13:21:33.609Z,4.35
2018-07-25T13:24:04.510Z,4.25
2018-07-25T13:26:34.998Z,6.45
2018-07-25T13:29:05.811Z,5.10
2018-07-25T13:31:36.324Z,6.22
2018-07-25T13:34:06.924Z,6.87
2018-07-25T13:36:38.025Z,7.47
2018-07-25T13:39:09.288Z,9.75
2018-07-25T13:41:40.226Z,5.80
2018-07-25T13:44:11.056Z,4.30
2018-07-25T13:46:41.478Z,7.10
2018-07-25T13:49:12.209Z,6.48
2018-07-25T13:51:42.959Z,5.72
2018-07-25T13:54:13.290Z,6.08
2018-07-25T13:56:43.714Z,7.73
2018-07-25T13:59:14.562Z,6.37
2018-07-25T14:01:45.292Z,5.00
2018-07-25T14:04:16.091Z,6.34
2018-07-25T14:06:46.663Z,6.40
2018-07-25T14:09:17.598Z,8.90
2018-07-25T14:11:47.956Z,7.40
2018-07-25T14:14:18.840Z,15.37
2018-07-25T14:16:50.833Z,6.37
2018-07-25T14:19:20.594Z,10.83
2018-07-25T14:21:50.445Z,11.70
2018-07-25T14:24:20.721Z,4.80
2018-07-25T14:26:50.817Z,7.93
2018-07-25T14:29:20.875Z,5.80
2018-07-25T14:31:50.971Z,7.87
2018-07-25T14:34:20.925Z,5.53
2018-07-25T14:36:50.934Z,7.20
2018-07-25T14:39:21.077Z,4.92
2018-07-25T14:41:51.119Z,4.90
2018-07-25T14:44:21.069Z,8.25
2018-07-25T14:46:52.056Z,6.45
2018-07-25T14:49:21.935Z,6.10
2018-07-25T14:51:52.024Z,13.98
2018-07-25T14:54:22.152Z,7.72
2018-07-25T14:56:52.128Z,7.65
2018-07-25T14:59:22.070Z,7.22
2018-07-25T15:01:52.285Z,7.83
2018-07-25T15:04:22.296Z,9.75
2018-07-25T15:06:52.290Z,5.70
2018-07-25T15:09:22.819Z,8.04
2018-07-25T15:11:53.460Z,4.60
2018-07-25T15:14:24.418Z,8.65
2018-07-25T15:16:54.899Z,8.50
2018-07-25T15:19:25.698Z,6.76
2018-07-25T15:21:56.355Z,4.80
2018-07-25T15:24:27.300Z,4.50
2018-07-25T15:26:57.766Z,7.05
2018-07-25T15:29:28.682Z,5.33
2018-07-25T15:31:59.374Z,5.80
2018-07-25T15:34:29.916Z,6.52
2018-07-25T15:37:00.839Z,10.55
2018-07-25T15:39:31.646Z,11.18
2018-07-25T15:42:01.940Z,4.75
2018-07-25T15:44:32.874Z,9.70
2018-07-25T15:47:03.677Z,6.16
2018-07-25T15:49:38.260Z,9.32
2018-07-25T15:52:08.300Z,7.28
2018-07-25T15:54:38.061Z,4.30
2018-07-25T15:57:07.870Z,6.33
2018-07-25T15:59:37.848Z,4.25
2018-07-25T16:02:08.497Z,7.33
2018-07-25T16:04:39.445Z,6.47
2018-07-25T16:07:09.506Z,7.84
2018-07-25T16:09:40.047Z,8.18
2018-07-25T16:12:10.393Z,8.48
2018-07-25T16:14:41.291Z,5.92
2018-07-25T16:17:11.947Z,8.40
2018-07-25T16:19:42.587Z,6.52
2018-07-25T16:22:13.273Z,6.97
2018-07-25T16:24:44.083Z,6.62
2018-07-25T16:27:13.912Z,7.35
2018-07-25T16:29:43.705Z,7.22
2018-07-25T16:32:13.622Z,8.50
2018-07-25T16:34:43.407Z,9.80
2018-07-25T16:37:13.201Z,6.53
2018-07-25T16:39:43.085Z,6.42
2018-07-25T16:42:12.849Z,6.50
2018-07-25T16:44:42.646Z,10.80
2018-07-25T16:47:12.680Z,9.45
2018-07-25T16:49:42.434Z,5.97
2018-07-25T16:52:12.340Z,7.28
2018-07-25T16:54:42.354Z,7.67
2018-07-25T16:57:12.339Z,4.10
2018-07-25T16:59:42.199Z,7.15
2018-07-25T17:02:12.376Z,5.63
2018-07-25T17:04:42.266Z,7.83
2018-07-25T17:07:12.179Z,4.30
2018-07-25T17:09:42.069Z,6.92
2018-07-25T17:12:12.008Z,6.17
2018-07-25T17:14:41.905Z,6.33
2018-07-25T17:17:11.665Z,6.80
2018-07-25T17:19:41.469Z,9.80
2018-07-25T17:22:11.456Z,4.97
2018-07-25T17:24:41.190Z,5.92
2018-07-25T17:27:11.024Z,8.20
2018-07-25T17:29:40.825Z,5.40
2018-07-25T17:32:10.681Z,4.23
2018-07-25T17:34:40.540Z,7.12
2018-07-25T17:37:10.470Z,6.37
2018-07-25T17:39:40.346Z,11.97
2018-07-25T17:42:10.238Z,11.37
2018-07-25T17:44:40.158Z,8.60
2018-07-25T17:47:10.158Z,5.63
2018-07-25T17:49:40.065Z,7.03
2018-07-25T17:52:11.435Z,5.23
2018-07-25T17:54:41.666Z,6.85
2018-07-25T17:57:12.186Z,5.83
2018-07-25T17:59:43.085Z,4.10
2018-07-25T18:02:13.928Z,6.43
2018-07-25T18:04:44.638Z,8.00
2018-07-25T18:07:15.408Z,9.23
2018-07-25T18:09:46.136Z,5.83
2018-07-25T18:12:16.893Z,7.00
2018-07-25T18:14:47.767Z,4.67
2018-07-25T18:17:18.250Z,6.87
2018-07-25T18:19:49.151Z,5.87
2018-07-25T18:22:19.911Z,4.27
2018-07-25T18:24:50.684Z,4.50
2018-07-25T18:27:21.663Z,4.70
2018-07-25T18:29:52.193Z,6.67
2018-07-25T18:32:23.054Z,7.57
2018-07-25T18:34:53.689Z,7.45
2018-07-25T18:37:24.450Z,6.80
2018-07-25T18:39:55.706Z,7.30
2018-07-25T18:42:26.189Z,4.30
2018-07-25T18:44:57.115Z,4.53
2018-07-25T18:47:27.776Z,15.27
2018-07-25T18:49:58.331Z,8.83
2018-07-25T18:52:29.109Z,6.83
2018-07-25T18:55:00.248Z,4.90
2018-07-25T18:57:30.477Z,5.20
2018-07-25T19:00:01.739Z,7.33
2018-07-25T19:02:32.312Z,4.30
2018-07-25T19:05:02.989Z,5.85
2018-07-25T19:07:33.886Z,8.63
2018-07-25T19:10:04.821Z,4.45
2018-07-25T19:12:34.964Z,5.23
2018-07-25T19:15:10.416Z,5.27
2018-07-25T19:17:40.930Z,5.97
2018-07-25T19:20:11.812Z,5.37
2018-07-25T19:22:42.258Z,5.50
2018-07-25T19:25:13.099Z,4.40
2018-07-25T19:27:43.468Z,6.25
2018-07-25T19:30:13.938Z,5.40
2018-07-25T19:32:44.485Z,6.15
2018-07-25T19:35:15.499Z,4.85
2018-07-25T19:37:45.752Z,4.93
2018-07-25T19:40:16.744Z,6.67
2018-07-25T19:42:47.143Z,6.87
2018-07-25T19:45:18.025Z,5.35
2018-07-25T19:47:48.541Z,4.80
2018-07-25T19:50:19.622Z,5.70
2018-07-25T19:52:49.930Z,6.03
2018-07-25T19:55:20.380Z,4.35
2018-07-25T19:57:51.257Z,6.03
2018-07-25T20:00:21.723Z,4.37
2018-07-25T20:02:51.878Z,3.87
2018-07-25T20:05:22.710Z,4.97
2018-07-25T20:07:53.094Z,6.73
2018-07-25T20:10:23.790Z,8.15
2018-07-25T20:12:54.518Z,4.23
2018-07-25T20:15:30.185Z,6.67
2018-07-25T20:18:00.391Z,7.62
2018-07-25T20:20:30.690Z,7.53
2018-07-25T20:23:00.882Z,4.13
2018-07-25T20:25:30.966Z,7.23
2018-07-25T20:28:00.764Z,4.40
2018-07-25T20:30:30.646Z,7.03
2018-07-25T20:33:00.521Z,5.00
2018-07-25T20:35:30.524Z,6.73
2018-07-25T20:38:00.998Z,6.27
2018-07-25T20:40:31.809Z,5.78
2018-07-25T20:43:02.056Z,5.30
2018-07-25T20:45:33.286Z,4.47
2018-07-25T20:48:03.493Z,4.87
2018-07-25T20:50:33.975Z,4.97
2018-07-25T20:53:04.595Z,4.33
2018-07-25T20:55:35.133Z,5.47
2018-07-25T20:58:05.078Z,4.83
2018-07-25T21:00:36.125Z,6.13
2018-07-25T21:03:07.359Z,7.37
2018-07-25T21:05:37.157Z,5.77
2018-07-25T21:08:07.057Z,4.70
2018-07-25T21:10:36.875Z,5.70
2018-07-25T21:13:06.712Z,4.63
2018-07-25T21:15:36.585Z,4.20
2018-07-25T21:18:06.657Z,5.37
2018-07-25T21:20:36.532Z,4.47
2018-07-25T21:23:06.569Z,4.43
2018-07-25T21:25:36.465Z,6.20
2018-07-25T21:28:06.394Z,6.30
2018-07-25T21:30:36.229Z,4.77
2018-07-25T21:33:06.736Z,5.13
2018-07-25T21:35:36.529Z,4.43
2018-07-25T21:38:06.378Z,4.50
2018-07-25T21:40:36.224Z,4.30
2018-07-25T21:43:06.105Z,4.83
2018-07-25T21:45:35.870Z,5.27
2018-07-25T21:48:05.711Z,10.40
2018-07-25T21:50:35.387Z,10.28
2018-07-25T21:53:05.368Z,6.35
2018-07-25T21:55:35.104Z,9.23
2018-07-25T21:58:04.955Z,6.63
2018-07-25T22:00:34.745Z,6.80
2018-07-25T22:03:04.565Z,6.13
2018-07-25T22:05:34.435Z,7.40
2018-07-25T22:08:04.236Z,10.10
2018-07-25T22:10:33.996Z,8.43
2018-07-25T22:13:03.764Z,7.93
2018-07-25T22:15:33.610Z,5.20
2018-07-25T22:18:03.386Z,6.97
2018-07-25T22:20:33.125Z,6.53
2018-07-25T22:23:03.859Z,5.90
2018-07-25T22:25:33.766Z,6.42
2018-07-25T22:28:03.508Z,4.30
2018-07-25T22:30:33.191Z,10.27
2018-07-25T22:33:03.014Z,4.50
2018-07-25T22:35:32.709Z,5.93
2018-07-25T22:38:02.583Z,4.60
2018-07-25T22:40:32.349Z,5.10
2018-07-25T22:43:02.767Z,5.03
2018-07-25T22:45:33.127Z,7.65
2018-07-25T22:48:03.855Z,4.40
2018-07-25T22:50:34.365Z,4.33
2018-07-25T22:53:05.244Z,5.80
2018-07-25T22:55:35.702Z,7.77
2018-07-25T22:58:05.749Z,5.63
2018-07-25T23:00:35.464Z,4.67
2018-07-25T23:03:05.156Z,4.60
2018-07-25T23:05:34.969Z,7.63
2018-07-25T23:08:05.001Z,5.00
2018-07-25T23:10:34.784Z,5.73
2018-07-25T23:13:04.524Z,7.50
2018-07-25T23:15:34.314Z,5.97
2018-07-25T23:18:04.058Z,6.70
2018-07-25T23:20:33.752Z,4.83
2018-07-25T23:23:03.616Z,4.80
2018-07-25T23:25:33.314Z,4.93
2018-07-25T23:28:03.035Z,7.10
2018-07-25T23:30:33.401Z,5.00
2018-07-25T23:33:03.154Z,6.30
2018-07-25T23:35:32.909Z,6.33
2018-07-25T23:38:02.603Z,8.45
2018-07-25T23:40:32.334Z,7.67
2018-07-25T23:43:02.032Z,5.22
2018-07-25T23:45:31.716Z,5.17
2018-07-25T23:48:01.444Z,4.93
2018-07-25T23:50:31.144Z,5.73
2018-07-25T23:53:00.834Z,5.73
2018-07-25T23:55:30.503Z,6.23
2018-07-25T23:58:00.214Z,7.55
